sensor_id;sensor_type;location;lat;lon;timestamp;pressure;altitude;pressure_sealevel;temperature;humidity
50682;BME280;36779;52.168;20.878;2023-11-21T00:02:05;99778.17;;;0.09;79.02
50682;BME280;36779;52.168;20.878;2023-11-21T00:04:57;99783.45;;;0.16;79.21
50682;BME280;36779;52.168;20.878;2023-11-21T00:07:46;99795.16;;;0.21;79.08
50682;BME280;36779;52.168;20.878;2023-11-21T00:10:36;99796.34;;;0.24;79.17
50682;BME280;36779;52.168;20.878;2023-11-21T00:13:27;99797.03;;;0.21;79.16
50682;BME280;36779;52.168;20.878;2023-11-21T00:16:17;99796.21;;;0.18;79.15
50682;BME280;36779;52.168;20.878;2023-11-21T00:19:08;99801.94;;;0.14;79.13
50682;BME280;36779;52.168;20.878;2023-11-21T00:21:58;99803.36;;;0.13;79.13
50682;BME280;36779;52.168;20.878;2023-11-21T00:24:47;99807.05;;;0.09;79.05
50682;BME280;36779;52.168;20.878;2023-11-21T00:27:36;99809.52;;;0.03;79.05
50682;BME280;36779;52.168;20.878;2023-11-21T00:30:26;99811.29;;;0.01;79.04
50682;BME280;36779;52.168;20.878;2023-11-21T00:33:18;99816.10;;;0.02;79.10
50682;BME280;36779;52.168;20.878;2023-11-21T00:36:10;99817.71;;;0.04;79.12
50682;BME280;36779;52.168;20.878;2023-11-21T00:38:59;99818.79;;;0.05;78.98
50682;BME280;36779;52.168;20.878;2023-11-21T00:41:52;99819.84;;;0.08;78.98
50682;BME280;36779;52.168;20.878;2023-11-21T00:44:42;99823.27;;;0.09;79.05
50682;BME280;36779;52.168;20.878;2023-11-21T00:47:33;99826.03;;;0.07;78.90
50682;BME280;36779;52.168;20.878;2023-11-21T00:50:24;99822.91;;;0.04;78.97
50682;BME280;36779;52.168;20.878;2023-11-21T00:53:13;99819.58;;;0.04;79.06
50682;BME280;36779;52.168;20.878;2023-11-21T00:56:03;99826.98;;;0.04;79.07
50682;BME280;36779;52.168;20.878;2023-11-21T00:58:57;99833.98;;;-0.04;78.93
50682;BME280;36779;52.168;20.878;2023-11-21T01:01:46;99838.04;;;-0.12;78.81
50682;BME280;36779;52.168;20.878;2023-11-21T01:04:35;99835.82;;;-0.18;78.93
50682;BME280;36779;52.168;20.878;2023-11-21T01:07:25;99834.29;;;-0.21;78.85
50682;BME280;36779;52.168;20.878;2023-11-21T01:10:15;99832.23;;;-0.24;78.90
50682;BME280;36779;52.168;20.878;2023-11-21T01:13:07;99831.89;;;-0.25;78.92
50682;BME280;36779;52.168;20.878;2023-11-21T01:15:50;99834.45;;;-0.21;79.05
50682;BME280;36779;52.168;20.878;2023-11-21T01:18:39;99837.58;;;-0.21;78.97
50682;BME280;36779;52.168;20.878;2023-11-21T01:21:29;99841.12;;;-0.27;78.76
50682;BME280;36779;52.168;20.878;2023-11-21T01:24:19;99843.30;;;-0.25;78.93
50682;BME280;36779;52.168;20.878;2023-11-21T01:27:08;99845.65;;;-0.21;78.99
50682;BME280;36779;52.168;20.878;2023-11-21T01:29:57;99850.05;;;-0.19;79.04
50682;BME280;36779;52.168;20.878;2023-11-21T01:32:47;99849.33;;;-0.19;79.13
50682;BME280;36779;52.168;20.878;2023-11-21T01:35:36;99847.36;;;-0.20;79.13
50682;BME280;36779;52.168;20.878;2023-11-21T01:38:26;99851.68;;;-0.22;79.08
50682;BME280;36779;52.168;20.878;2023-11-21T01:41:14;99851.13;;;-0.25;79.14
50682;BME280;36779;52.168;20.878;2023-11-21T01:44:06;99853.48;;;-0.28;79.07
50682;BME280;36779;52.168;20.878;2023-11-21T01:46:57;99852.52;;;-0.30;79.15
50682;BME280;36779;52.168;20.878;2023-11-21T01:49:47;99853.59;;;-0.33;78.93
50682;BME280;36779;52.168;20.878;2023-11-21T01:52:39;99854.55;;;-0.34;78.86
50682;BME280;36779;52.168;20.878;2023-11-21T01:55:29;99855.33;;;-0.35;78.82
50682;BME280;36779;52.168;20.878;2023-11-21T01:58:20;99853.48;;;-0.36;78.71
50682;BME280;36779;52.168;20.878;2023-11-21T02:01:10;99849.37;;;-0.39;78.90
50682;BME280;36779;52.168;20.878;2023-11-21T02:03:58;99856.22;;;-0.40;78.94
50682;BME280;36779;52.168;20.878;2023-11-21T02:06:47;99857.66;;;-0.46;78.82
50682;BME280;36779;52.168;20.878;2023-11-21T02:09:41;99860.83;;;-0.49;78.89
50682;BME280;36779;52.168;20.878;2023-11-21T02:12:30;99858.80;;;-0.53;78.77
50682;BME280;36779;52.168;20.878;2023-11-21T02:15:21;99859.21;;;-0.53;78.91
50682;BME280;36779;52.168;20.878;2023-11-21T02:18:12;99861.31;;;-0.53;78.96
50682;BME280;36779;52.168;20.878;2023-11-21T02:21:07;99866.60;;;-0.54;78.82
50682;BME280;36779;52.168;20.878;2023-11-21T02:23:58;99871.69;;;-0.57;78.88
50682;BME280;36779;52.168;20.878;2023-11-21T02:26:49;99872.80;;;-0.61;78.78
50682;BME280;36779;52.168;20.878;2023-11-21T02:29:39;99872.64;;;-0.63;78.79
50682;BME280;36779;52.168;20.878;2023-11-21T02:32:28;99873.23;;;-0.65;78.78
50682;BME280;36779;52.168;20.878;2023-11-21T02:35:23;99874.16;;;-0.65;78.93
50682;BME280;36779;52.168;20.878;2023-11-21T02:38:14;99875.20;;;-0.65;78.81
50682;BME280;36779;52.168;20.878;2023-11-21T02:41:04;99876.81;;;-0.63;78.84
50682;BME280;36779;52.168;20.878;2023-11-21T02:43:54;99877.60;;;-0.65;78.95
50682;BME280;36779;52.168;20.878;2023-11-21T02:46:43;99887.07;;;-0.65;78.97
50682;BME280;36779;52.168;20.878;2023-11-21T02:49:32;99885.90;;;-0.69;78.90
50682;BME280;36779;52.168;20.878;2023-11-21T02:52:23;99881.11;;;-0.70;79.03
50682;BME280;36779;52.168;20.878;2023-11-21T02:55:13;99885.40;;;-0.69;78.97
50682;BME280;36779;52.168;20.878;2023-11-21T02:58:05;99883.17;;;-0.67;79.13
50682;BME280;36779;52.168;20.878;2023-11-21T03:00:55;99884.61;;;-0.68;78.97
50682;BME280;36779;52.168;20.878;2023-11-21T03:03:44;99884.17;;;-0.72;78.84
50682;BME280;36779;52.168;20.878;2023-11-21T03:06:35;99886.14;;;-0.73;78.98
50682;BME280;36779;52.168;20.878;2023-11-21T03:09:24;99883.92;;;-0.68;78.99
50682;BME280;36779;52.168;20.878;2023-11-21T03:12:15;99889.10;;;-0.64;79.00
50682;BME280;36779;52.168;20.878;2023-11-21T03:15:06;99884.66;;;-0.61;79.05
50682;BME280;36779;52.168;20.878;2023-11-21T03:17:58;99888.54;;;-0.61;78.97
50682;BME280;36779;52.168;20.878;2023-11-21T03:20:47;99887.70;;;-0.64;79.05
50682;BME280;36779;52.168;20.878;2023-11-21T03:23:38;99893.73;;;-0.68;79.02
50682;BME280;36779;52.168;20.878;2023-11-21T03:26:27;99899.61;;;-0.73;78.92
50682;BME280;36779;52.168;20.878;2023-11-21T03:29:17;99902.80;;;-0.74;78.93
50682;BME280;36779;52.168;20.878;2023-11-21T03:32:08;99902.95;;;-0.76;78.85
50682;BME280;36779;52.168;20.878;2023-11-21T03:34:58;99900.90;;;-0.76;78.95
50682;BME280;36779;52.168;20.878;2023-11-21T03:37:48;99903.68;;;-0.74;79.03
50682;BME280;36779;52.168;20.878;2023-11-21T03:40:37;99900.14;;;-0.78;78.79
50682;BME280;36779;52.168;20.878;2023-11-21T03:43:28;99901.38;;;-0.81;78.82
50682;BME280;36779;52.168;20.878;2023-11-21T03:46:18;99901.42;;;-0.79;78.89
50682;BME280;36779;52.168;20.878;2023-11-21T03:49:07;99907.82;;;-0.78;79.01
50682;BME280;36779;52.168;20.878;2023-11-21T03:51:57;99913.86;;;-0.80;78.95
50682;BME280;36779;52.168;20.878;2023-11-21T03:54:48;99917.66;;;-0.79;79.13
50682;BME280;36779;52.168;20.878;2023-11-21T03:57:37;99920.38;;;-0.81;79.07
50682;BME280;36779;52.168;20.878;2023-11-21T04:00:26;99932.45;;;-0.84;79.04
50682;BME280;36779;52.168;20.878;2023-11-21T04:03:16;99934.40;;;-0.84;78.96
50682;BME280;36779;52.168;20.878;2023-11-21T04:06:07;99940.77;;;-0.86;79.03
50682;BME280;36779;52.168;20.878;2023-11-21T04:08:49;99942.08;;;-0.87;79.09
50682;BME280;36779;52.168;20.878;2023-11-21T04:11:38;99943.16;;;-0.88;78.97
50682;BME280;36779;52.168;20.878;2023-11-21T04:14:29;99937.20;;;-0.90;78.91
50682;BME280;36779;52.168;20.878;2023-11-21T04:17:18;99941.23;;;-0.87;78.89
50682;BME280;36779;52.168;20.878;2023-11-21T04:20:08;99939.35;;;-0.88;78.81
50682;BME280;36779;52.168;20.878;2023-11-21T04:22:58;99939.28;;;-0.87;78.96
50682;BME280;36779;52.168;20.878;2023-11-21T04:25:48;99942.73;;;-0.86;78.98
50682;BME280;36779;52.168;20.878;2023-11-21T04:28:37;99944.77;;;-0.91;78.82
50682;BME280;36779;52.168;20.878;2023-11-21T04:31:27;99944.29;;;-0.94;79.02
50682;BME280;36779;52.168;20.878;2023-11-21T04:34:16;99950.07;;;-0.95;79.04
50682;BME280;36779;52.168;20.878;2023-11-21T04:37:06;99953.88;;;-0.92;79.25
50682;BME280;36779;52.168;20.878;2023-11-21T04:39:56;99958.95;;;-0.92;79.11
50682;BME280;36779;52.168;20.878;2023-11-21T04:42:45;99967.95;;;-0.93;79.07
50682;BME280;36779;52.168;20.878;2023-11-21T04:45:35;99968.88;;;-0.91;79.10
50682;BME280;36779;52.168;20.878;2023-11-21T04:48:25;99967.27;;;-0.91;79.20
50682;BME280;36779;52.168;20.878;2023-11-21T04:51:13;99967.88;;;-0.89;79.09
50682;BME280;36779;52.168;20.878;2023-11-21T04:54:03;99969.30;;;-0.84;79.05
50682;BME280;36779;52.168;20.878;2023-11-21T04:56:55;99970.55;;;-0.82;79.23
50682;BME280;36779;52.168;20.878;2023-11-21T04:59:45;99970.75;;;-0.82;78.98
50682;BME280;36779;52.168;20.878;2023-11-21T05:02:34;99970.78;;;-0.86;78.82
50682;BME280;36779;52.168;20.878;2023-11-21T05:05:25;99970.75;;;-0.88;78.88
50682;BME280;36779;52.168;20.878;2023-11-21T05:08:14;99969.06;;;-0.97;78.70
50682;BME280;36779;52.168;20.878;2023-11-21T05:11:04;99971.65;;;-1.05;78.75
50682;BME280;36779;52.168;20.878;2023-11-21T05:13:55;99971.77;;;-1.09;78.83
50682;BME280;36779;52.168;20.878;2023-11-21T05:16:49;99984.94;;;-1.13;78.82
50682;BME280;36779;52.168;20.878;2023-11-21T05:19:40;99993.16;;;-1.14;78.79
50682;BME280;36779;52.168;20.878;2023-11-21T05:22:30;99998.31;;;-1.18;78.83
50682;BME280;36779;52.168;20.878;2023-11-21T05:25:19;99999.45;;;-1.22;78.77
50682;BME280;36779;52.168;20.878;2023-11-21T05:28:08;100003.25;;;-1.25;78.88
50682;BME280;36779;52.168;20.878;2023-11-21T05:30:57;100012.50;;;-1.22;78.78
50682;BME280;36779;52.168;20.878;2023-11-21T05:34:04;100009.60;;;-1.20;78.94
50682;BME280;36779;52.168;20.878;2023-11-21T05:36:55;100016.16;;;-1.19;78.83
50682;BME280;36779;52.168;20.878;2023-11-21T05:39:46;100018.52;;;-1.17;78.84
50682;BME280;36779;52.168;20.878;2023-11-21T05:42:36;100019.99;;;-1.16;78.75
50682;BME280;36779;52.168;20.878;2023-11-21T05:45:26;100022.27;;;-1.13;78.92
50682;BME280;36779;52.168;20.878;2023-11-21T05:48:18;100023.86;;;-1.14;78.73
50682;BME280;36779;52.168;20.878;2023-11-21T05:51:07;100025.48;;;-1.17;78.89
50682;BME280;36779;52.168;20.878;2023-11-21T05:53:58;100023.61;;;-1.19;78.87
50682;BME280;36779;52.168;20.878;2023-11-21T05:56:48;100025.00;;;-1.21;78.85
50682;BME280;36779;52.168;20.878;2023-11-21T05:59:37;100024.04;;;-1.28;78.86
50682;BME280;36779;52.168;20.878;2023-11-21T06:02:26;100028.71;;;-1.30;78.94
50682;BME280;36779;52.168;20.878;2023-11-21T06:05:14;100029.31;;;-1.28;78.98
50682;BME280;36779;52.168;20.878;2023-11-21T06:08:04;100030.96;;;-1.30;78.94
50682;BME280;36779;52.168;20.878;2023-11-21T06:10:58;100039.02;;;-1.33;78.69
50682;BME280;36779;52.168;20.878;2023-11-21T06:13:48;100037.95;;;-1.35;78.77
50682;BME280;36779;52.168;20.878;2023-11-21T06:16:38;100051.41;;;-1.36;78.94
50682;BME280;36779;52.168;20.878;2023-11-21T06:19:28;100051.58;;;-1.33;78.94
50682;BME280;36779;52.168;20.878;2023-11-21T06:22:17;100062.74;;;-1.31;78.99
50682;BME280;36779;52.168;20.878;2023-11-21T06:25:07;100070.41;;;-1.30;78.90
50682;BME280;36779;52.168;20.878;2023-11-21T06:27:57;100072.61;;;-1.32;78.90
50682;BME280;36779;52.168;20.878;2023-11-21T06:30:47;100065.83;;;-1.32;78.95
50682;BME280;36779;52.168;20.878;2023-11-21T06:33:37;100068.58;;;-1.35;79.00
50682;BME280;36779;52.168;20.878;2023-11-21T06:36:21;100065.08;;;-1.35;79.10
50682;BME280;36779;52.168;20.878;2023-11-21T06:39:10;100067.12;;;-1.34;79.12
50682;BME280;36779;52.168;20.878;2023-11-21T06:42:00;100069.89;;;-1.34;79.12
50682;BME280;36779;52.168;20.878;2023-11-21T06:44:51;100071.92;;;-1.32;79.07
50682;BME280;36779;52.168;20.878;2023-11-21T06:47:44;100078.78;;;-1.28;79.16
50682;BME280;36779;52.168;20.878;2023-11-21T06:50:33;100083.57;;;-1.24;79.13
50682;BME280;36779;52.168;20.878;2023-11-21T06:53:23;100086.48;;;-1.20;79.04
50682;BME280;36779;52.168;20.878;2023-11-21T06:56:18;100092.28;;;-1.17;78.94
50682;BME280;36779;52.168;20.878;2023-11-21T06:59:08;100090.13;;;-1.14;79.06
50682;BME280;36779;52.168;20.878;2023-11-21T07:02:00;100095.46;;;-1.13;78.95
50682;BME280;36779;52.168;20.878;2023-11-21T07:04:52;100103.59;;;-1.14;78.77
50682;BME280;36779;52.168;20.878;2023-11-21T07:07:41;100107.57;;;-1.17;78.80
50682;BME280;36779;52.168;20.878;2023-11-21T07:10:32;100112.02;;;-1.18;78.93
50682;BME280;36779;52.168;20.878;2023-11-21T07:13:22;100116.63;;;-1.19;78.74
50682;BME280;36779;52.168;20.878;2023-11-21T07:16:11;100117.84;;;-1.22;79.03
50682;BME280;36779;52.168;20.878;2023-11-21T07:19:01;100118.90;;;-1.20;79.04
50682;BME280;36779;52.168;20.878;2023-11-21T07:21:51;100117.36;;;-1.17;79.00
50682;BME280;36779;52.168;20.878;2023-11-21T07:24:43;100118.92;;;-1.14;79.00
50682;BME280;36779;52.168;20.878;2023-11-21T07:27:34;100118.12;;;-1.12;79.01
50682;BME280;36779;52.168;20.878;2023-11-21T07:30:25;100122.93;;;-1.14;78.85
50682;BME280;36779;52.168;20.878;2023-11-21T07:33:14;100124.48;;;-1.14;79.00
50682;BME280;36779;52.168;20.878;2023-11-21T07:36:08;100124.35;;;-1.15;78.86
50682;BME280;36779;52.168;20.878;2023-11-21T07:38:41;100127.36;;;-1.15;78.81
50682;BME280;36779;52.168;20.878;2023-11-21T07:41:21;100131.60;;;-1.16;78.94
50682;BME280;36779;52.168;20.878;2023-11-21T07:44:20;100134.98;;;-1.17;78.95
50682;BME280;36779;52.168;20.878;2023-11-21T07:47:10;100134.23;;;-1.20;78.91
50682;BME280;36779;52.168;20.878;2023-11-21T07:50:00;100137.75;;;-1.23;78.94
50682;BME280;36779;52.168;20.878;2023-11-21T07:52:43;100136.76;;;-1.24;78.99
50682;BME280;36779;52.168;20.878;2023-11-21T07:55:34;100131.19;;;-1.24;79.10
50682;BME280;36779;52.168;20.878;2023-11-21T07:58:25;100134.95;;;-1.20;79.05
50682;BME280;36779;52.168;20.878;2023-11-21T08:01:15;100137.39;;;-1.16;79.19
50682;BME280;36779;52.168;20.878;2023-11-21T08:04:06;100140.19;;;-1.14;79.19
50682;BME280;36779;52.168;20.878;2023-11-21T08:06:55;100134.88;;;-1.15;79.09
50682;BME280;36779;52.168;20.878;2023-11-21T08:09:45;100137.20;;;-1.16;78.98
50682;BME280;36779;52.168;20.878;2023-11-21T08:12:38;100136.41;;;-1.12;79.08
50682;BME280;36779;52.168;20.878;2023-11-21T08:15:31;100136.98;;;-1.10;79.19
50682;BME280;36779;52.168;20.878;2023-11-21T08:18:21;100141.30;;;-1.09;79.09
50682;BME280;36779;52.168;20.878;2023-11-21T08:21:11;100143.86;;;-1.08;79.18
50682;BME280;36779;52.168;20.878;2023-11-21T08:24:01;100145.08;;;-1.11;79.04
50682;BME280;36779;52.168;20.878;2023-11-21T08:26:53;100149.62;;;-1.14;78.95
50682;BME280;36779;52.168;20.878;2023-11-21T08:29:44;100157.77;;;-1.19;78.95
50682;BME280;36779;52.168;20.878;2023-11-21T08:32:34;100163.85;;;-1.19;78.93
50682;BME280;36779;52.168;20.878;2023-11-21T08:35:24;100166.16;;;-1.17;78.97
50682;BME280;36779;52.168;20.878;2023-11-21T08:38:15;100168.20;;;-1.15;78.98
50682;BME280;36779;52.168;20.878;2023-11-21T08:41:09;100174.23;;;-1.14;78.88
50682;BME280;36779;52.168;20.878;2023-11-21T08:43:58;100174.42;;;-1.12;78.99
50682;BME280;36779;52.168;20.878;2023-11-21T08:46:48;100178.10;;;-1.09;78.91
50682;BME280;36779;52.168;20.878;2023-11-21T08:49:39;100173.73;;;-1.12;78.97
50682;BME280;36779;52.168;20.878;2023-11-21T08:52:29;100180.55;;;-1.15;78.85
50682;BME280;36779;52.168;20.878;2023-11-21T08:55:20;100177.42;;;-1.18;78.78
50682;BME280;36779;52.168;20.878;2023-11-21T08:58:10;100178.67;;;-1.16;78.98
50682;BME280;36779;52.168;20.878;2023-11-21T09:01:03;100183.40;;;-1.16;78.85
50682;BME280;36779;52.168;20.878;2023-11-21T09:03:56;100190.04;;;-1.16;78.80
50682;BME280;36779;52.168;20.878;2023-11-21T09:06:46;100191.78;;;-1.14;78.92
50682;BME280;36779;52.168;20.878;2023-11-21T09:09:40;100198.86;;;-1.15;78.90
50682;BME280;36779;52.168;20.878;2023-11-21T09:12:34;100204.58;;;-1.18;78.87
50682;BME280;36779;52.168;20.878;2023-11-21T09:15:26;100209.44;;;-1.20;78.97
50682;BME280;36779;52.168;20.878;2023-11-21T09:18:19;100210.75;;;-1.22;78.91
50682;BME280;36779;52.168;20.878;2023-11-21T09:21:08;100206.09;;;-1.20;78.95
50682;BME280;36779;52.168;20.878;2023-11-21T09:23:58;100209.06;;;-1.17;78.94
50682;BME280;36779;52.168;20.878;2023-11-21T09:26:48;100205.19;;;-1.16;78.94
50682;BME280;36779;52.168;20.878;2023-11-21T09:29:42;100209.20;;;-1.13;78.88
50682;BME280;36779;52.168;20.878;2023-11-21T09:32:33;100209.17;;;-1.10;78.99
50682;BME280;36779;52.168;20.878;2023-11-21T09:35:27;100208.78;;;-1.03;79.08
50682;BME280;36779;52.168;20.878;2023-11-21T09:38:17;100207.59;;;-0.95;79.07
50682;BME280;36779;52.168;20.878;2023-11-21T09:41:14;100207.65;;;-0.90;79.02
50682;BME280;36779;52.168;20.878;2023-11-21T09:44:10;100204.42;;;-0.89;79.25
50682;BME280;36779;52.168;20.878;2023-11-21T09:47:04;100201.86;;;-0.84;79.39
50682;BME280;36779;52.168;20.878;2023-11-21T09:49:49;100204.05;;;-0.78;79.26
50682;BME280;36779;52.168;20.878;2023-11-21T09:52:46;100204.27;;;-0.73;79.31
50682;BME280;36779;52.168;20.878;2023-11-21T09:55:42;100207.40;;;-0.66;79.31
50682;BME280;36779;52.168;20.878;2023-11-21T09:58:34;100210.35;;;-0.60;79.13
50682;BME280;36779;52.168;20.878;2023-11-21T10:01:25;100210.74;;;-0.53;79.21
50682;BME280;36779;52.168;20.878;2023-11-21T10:04:18;100214.95;;;-0.45;79.15
50682;BME280;36779;52.168;20.878;2023-11-21T10:07:09;100219.19;;;-0.40;79.16
50682;BME280;36779;52.168;20.878;2023-11-21T10:10:02;100219.79;;;-0.33;79.24
50682;BME280;36779;52.168;20.878;2023-11-21T10:12:56;100219.30;;;-0.31;78.96
50682;BME280;36779;52.168;20.878;2023-11-21T10:15:51;100225.21;;;-0.36;78.86
50682;BME280;36779;52.168;20.878;2023-11-21T10:18:43;100227.59;;;-0.40;78.96
50682;BME280;36779;52.168;20.878;2023-11-21T10:21:36;100227.55;;;-0.39;79.10
50682;BME280;36779;52.168;20.878;2023-11-21T10:24:17;100221.90;;;-0.33;79.12
50682;BME280;36779;52.168;20.878;2023-11-21T10:27:08;100223.25;;;-0.24;79.26
50682;BME280;36779;52.168;20.878;2023-11-21T10:29:57;100223.73;;;-0.15;79.31
50682;BME280;36779;52.168;20.878;2023-11-21T10:32:47;100225.86;;;-0.07;79.20
50682;BME280;36779;52.168;20.878;2023-11-21T10:35:43;100228.16;;;0.06;79.38
50682;BME280;36779;52.168;20.878;2023-11-21T10:38:43;100225.98;;;0.09;79.10
50682;BME280;36779;52.168;20.878;2023-11-21T10:41:36;100231.66;;;0.03;78.93
50682;BME280;36779;52.168;20.878;2023-11-21T10:44:26;100231.24;;;-0.04;78.87
50682;BME280;36779;52.168;20.878;2023-11-21T10:47:16;100232.73;;;-0.14;78.77
50682;BME280;36779;52.168;20.878;2023-11-21T10:50:09;100233.99;;;-0.20;78.83
50682;BME280;36779;52.168;20.878;2023-11-21T10:52:50;100236.61;;;-0.23;78.84
50682;BME280;36779;52.168;20.878;2023-11-21T10:55:42;100237.77;;;-0.27;78.85
50682;BME280;36779;52.168;20.878;2023-11-21T10:58:39;100238.34;;;-0.28;78.98
50682;BME280;36779;52.168;20.878;2023-11-21T11:01:31;100241.73;;;-0.32;78.71
50682;BME280;36779;52.168;20.878;2023-11-21T11:04:23;100235.48;;;-0.38;78.76
50682;BME280;36779;52.168;20.878;2023-11-21T11:07:08;100237.13;;;-0.39;78.76
50682;BME280;36779;52.168;20.878;2023-11-21T11:10:00;100239.54;;;-0.39;78.81
50682;BME280;36779;52.168;20.878;2023-11-21T11:12:41;100241.76;;;-0.41;78.84
50682;BME280;36779;52.168;20.878;2023-11-21T11:15:30;100240.98;;;-0.42;78.91
50682;BME280;36779;52.168;20.878;2023-11-21T11:18:20;100245.23;;;-0.49;78.89
50682;BME280;36779;52.168;20.878;2023-11-21T11:21:20;100243.16;;;-0.58;78.72
50682;BME280;36779;52.168;20.878;2023-11-21T11:24:26;100245.40;;;-0.57;79.03
50682;BME280;36779;52.168;20.878;2023-11-21T11:27:29;100248.83;;;-0.56;78.92
50682;BME280;36779;52.168;20.878;2023-11-21T11:30:37;100251.52;;;-0.57;78.86
50682;BME280;36779;52.168;20.878;2023-11-21T11:33:29;100252.54;;;-0.57;78.94
50682;BME280;36779;52.168;20.878;2023-11-21T11:36:31;100257.73;;;-0.56;78.84
50682;BME280;36779;52.168;20.878;2023-11-21T11:39:30;100259.68;;;-0.57;78.87
50682;BME280;36779;52.168;20.878;2023-11-21T11:42:22;100257.13;;;-0.60;78.73
50682;BME280;36779;52.168;20.878;2023-11-21T11:45:21;100255.73;;;-0.66;78.75
50682;BME280;36779;52.168;20.878;2023-11-21T11:48:12;100259.48;;;-0.73;78.62
50682;BME280;36779;52.168;20.878;2023-11-21T11:51:10;100257.20;;;-0.76;78.82
50682;BME280;36779;52.168;20.878;2023-11-21T11:54:00;100258.64;;;-0.77;78.87
50682;BME280;36779;52.168;20.878;2023-11-21T11:56:50;100256.74;;;-0.80;78.56
50682;BME280;36779;52.168;20.878;2023-11-21T12:00:15;100255.72;;;-0.83;78.77
50682;BME280;36779;52.168;20.878;2023-11-21T12:03:11;100258.15;;;-0.83;78.74
50682;BME280;36779;52.168;20.878;2023-11-21T12:06:04;100262.92;;;-0.87;78.87
50682;BME280;36779;52.168;20.878;2023-11-21T12:09:02;100270.56;;;-0.92;78.69
50682;BME280;36779;52.168;20.878;2023-11-21T12:11:56;100272.34;;;-0.99;78.74
50682;BME280;36779;52.168;20.878;2023-11-21T12:14:49;100268.88;;;-0.99;78.87
50682;BME280;36779;52.168;20.878;2023-11-21T12:17:39;100274.68;;;-0.94;79.05
50682;BME280;36779;52.168;20.878;2023-11-21T12:20:21;100280.23;;;-0.91;78.79
50682;BME280;36779;52.168;20.878;2023-11-21T12:23:11;100287.30;;;-0.92;78.80
50682;BME280;36779;52.168;20.878;2023-11-21T12:26:03;100282.52;;;-0.91;78.81
50682;BME280;36779;52.168;20.878;2023-11-21T12:28:53;100285.62;;;-0.90;78.85
50682;BME280;36779;52.168;20.878;2023-11-21T12:31:36;100283.95;;;-0.89;79.03
50682;BME280;36779;52.168;20.878;2023-11-21T12:34:27;100288.34;;;-0.89;78.88
50682;BME280;36779;52.168;20.878;2023-11-21T12:37:17;100291.47;;;-0.91;78.82
50682;BME280;36779;52.168;20.878;2023-11-21T12:40:11;100290.16;;;-0.90;79.01
50682;BME280;36779;52.168;20.878;2023-11-21T12:43:06;100287.27;;;-0.89;78.92
50682;BME280;36779;52.168;20.878;2023-11-21T12:45:52;100289.52;;;-0.88;78.97
50682;BME280;36779;52.168;20.878;2023-11-21T12:49:02;100294.59;;;-0.88;78.79
50682;BME280;36779;52.168;20.878;2023-11-21T12:51:52;100296.91;;;-0.86;78.94
50682;BME280;36779;52.168;20.878;2023-11-21T12:54:43;100302.52;;;-0.87;78.84
50682;BME280;36779;52.168;20.878;2023-11-21T12:57:34;100302.59;;;-0.88;78.87
50682;BME280;36779;52.168;20.878;2023-11-21T13:00:32;100302.95;;;-0.91;78.71
50682;BME280;36779;52.168;20.878;2023-11-21T13:03:24;100305.52;;;-0.96;78.79
50682;BME280;36779;52.168;20.878;2023-11-21T13:06:18;100308.64;;;-1.02;78.66
50682;BME280;36779;52.168;20.878;2023-11-21T13:09:11;100309.41;;;-1.09;78.66
50682;BME280;36779;52.168;20.878;2023-11-21T13:12:04;100317.81;;;-1.12;78.73
50682;BME280;36779;52.168;20.878;2023-11-21T13:14:57;100312.58;;;-1.12;78.78
50682;BME280;36779;52.168;20.878;2023-11-21T13:17:43;100318.30;;;-1.09;78.93
50682;BME280;36779;52.168;20.878;2023-11-21T13:20:41;100318.98;;;-1.06;78.95
50682;BME280;36779;52.168;20.878;2023-11-21T13:23:36;100320.98;;;-1.01;78.92
50682;BME280;36779;52.168;20.878;2023-11-21T13:26:26;100323.02;;;-1.00;78.98
50682;BME280;36779;52.168;20.878;2023-11-21T13:29:16;100332.76;;;-1.03;78.99
50682;BME280;36779;52.168;20.878;2023-11-21T13:32:06;100336.96;;;-1.06;78.79
50682;BME280;36779;52.168;20.878;2023-11-21T13:35:04;100345.17;;;-1.09;78.76
50682;BME280;36779;52.168;20.878;2023-11-21T13:38:10;100358.05;;;-1.11;78.76
50682;BME280;36779;52.168;20.878;2023-11-21T13:41:03;100358.42;;;-1.12;78.75
50682;BME280;36779;52.168;20.878;2023-11-21T13:44:01;100359.64;;;-1.12;78.64
50682;BME280;36779;52.168;20.878;2023-11-21T13:46:56;100363.64;;;-1.15;78.72
50682;BME280;36779;52.168;20.878;2023-11-21T13:49:49;100367.92;;;-1.16;78.79
50682;BME280;36779;52.168;20.878;2023-11-21T13:52:38;100374.96;;;-1.21;78.68
50682;BME280;36779;52.168;20.878;2023-11-21T13:55:20;100382.98;;;-1.24;78.70
50682;BME280;36779;52.168;20.878;2023-11-21T13:58:06;100384.36;;;-1.27;78.78
50682;BME280;36779;52.168;20.878;2023-11-21T14:00:58;100391.73;;;-1.31;78.70
50682;BME280;36779;52.168;20.878;2023-11-21T14:03:49;100400.95;;;-1.30;78.79
50682;BME280;36779;52.168;20.878;2023-11-21T14:06:48;100415.44;;;-1.30;78.72
50682;BME280;36779;52.168;20.878;2023-11-21T14:09:31;100417.19;;;-1.31;78.85
50682;BME280;36779;52.168;20.878;2023-11-21T14:12:26;100420.06;;;-1.32;78.73
50682;BME280;36779;52.168;20.878;2023-11-21T14:15:16;100422.75;;;-1.33;78.82
50682;BME280;36779;52.168;20.878;2023-11-21T14:18:07;100428.02;;;-1.31;78.72
50682;BME280;36779;52.168;20.878;2023-11-21T14:21:06;100432.73;;;-1.28;78.75
50682;BME280;36779;52.168;20.878;2023-11-21T14:23:59;100437.88;;;-1.29;78.78
50682;BME280;36779;52.168;20.878;2023-11-21T14:26:49;100443.54;;;-1.31;78.62
50682;BME280;36779;52.168;20.878;2023-11-21T14:29:41;100452.02;;;-1.33;78.79
50682;BME280;36779;52.168;20.878;2023-11-21T14:32:36;100453.89;;;-1.35;78.75
50682;BME280;36779;52.168;20.878;2023-11-21T14:35:51;100462.12;;;-1.39;78.65
50682;BME280;36779;52.168;20.878;2023-11-21T14:38:42;100471.04;;;-1.43;78.70
50682;BME280;36779;52.168;20.878;2023-11-21T14:41:33;100473.85;;;-1.43;78.67
50682;BME280;36779;52.168;20.878;2023-11-21T14:44:24;100476.67;;;-1.44;78.65
50682;BME280;36779;52.168;20.878;2023-11-21T14:47:16;100476.29;;;-1.46;78.61
50682;BME280;36779;52.168;20.878;2023-11-21T14:50:07;100476.08;;;-1.49;78.75